Time;durP1;ratioP1;P1;durP2;ratioP2;P2;SDS_P1;SDS_P2;PMS_P1;PMS_P2;Temp;Humidity;BMP_temperature;BMP_pressure;BME280_temperature;BME280_humidity;BME280_pressure;Samples;Min_cycle;Max_cycle;Signal;HPM_P1;HPM_P2
2023/06/21 00:01:38;;;;;;;5.50;2.70;;;18.30;99.90;;;;;;5071556;28;20041;-56
2023/06/21 00:04:06;;;;;;;3.60;2.10;;;18.30;99.90;;;;;;5071714;28;20132;-55
2023/06/21 00:06:34;;;;;;;4.95;2.22;;;18.20;99.90;;;;;;5071045;28;20132;-57
2023/06/21 00:09:04;;;;;;;4.18;1.77;;;18.20;99.90;;;;;;5071239;28;20070;-54
2023/06/21 00:11:32;;;;;;;4.20;2.38;;;18.20;99.90;;;;;;5053835;28;20052;-56
2023/06/21 00:13:59;;;;;;;5.22;2.38;;;18.10;99.90;;;;;;5071163;28;20036;-57
2023/06/21 00:16:26;;;;;;;5.35;2.20;;;18.10;99.90;;;;;;5071503;28;20119;-56
2023/06/21 00:18:53;;;;;;;3.95;2.40;;;18.00;99.90;;;;;;5071245;28;20048;-56
2023/06/21 00:21:20;;;;;;;3.53;2.00;;;17.90;99.90;;;;;;5071103;28;20051;-56
2023/06/21 00:23:46;;;;;;;4.22;2.08;;;17.90;99.90;;;;;;5070816;28;20494;-56
2023/06/21 00:26:13;;;;;;;3.13;1.83;;;17.80;99.90;;;;;;5070831;28;20056;-56
2023/06/21 00:28:40;;;;;;;3.40;2.22;;;17.70;99.90;;;;;;5070849;28;20445;-56
2023/06/21 00:31:10;;;;;;;3.55;2.20;;;17.60;99.90;;;;;;5071043;28;20044;-56
2023/06/21 00:33:38;;;;;;;4.80;1.88;;;17.60;99.90;;;;;;5067725;28;20044;-57
2023/06/21 00:36:05;;;;;;;4.00;2.05;;;17.60;99.90;;;;;;5071044;28;20059;-57
2023/06/21 00:38:34;;;;;;;4.72;2.33;;;17.70;99.90;;;;;;5070173;28;20052;-57
2023/06/21 00:41:05;;;;;;;3.63;2.08;;;17.70;99.90;;;;;;5071002;28;20074;-56
2023/06/21 00:43:32;;;;;;;6.72;2.17;;;17.70;99.90;;;;;;5051101;28;20499;-54
2023/06/21 00:45:59;;;;;;;2.95;1.98;;;17.70;99.90;;;;;;5069018;28;20527;-57
2023/06/21 00:48:28;;;;;;;6.45;2.58;;;17.70;99.90;;;;;;5069198;28;20076;-57
2023/06/21 00:50:58;;;;;;;5.80;2.20;;;17.60;99.90;;;;;;5060248;28;20048;-56
2023/06/21 00:53:26;;;;;;;8.52;2.30;;;17.50;99.90;;;;;;5070613;28;20045;-56
2023/06/21 00:55:54;;;;;;;6.63;1.92;;;17.40;99.90;;;;;;5052577;28;20492;-56
2023/06/21 00:58:21;;;;;;;3.30;1.92;;;17.40;99.90;;;;;;5052716;28;20484;-57
2023/06/21 01:00:51;;;;;;;7.72;2.15;;;17.40;99.90;;;;;;5070835;28;20058;-55
2023/06/21 01:03:21;;;;;;;4.97;2.05;;;17.30;99.90;;;;;;5070896;28;20049;-55
2023/06/21 01:06:02;;;;;;;2.95;1.85;;;17.30;99.90;;;;;;5050059;28;20056;-55
2023/06/21 01:09:03;;;;;;;4.00;2.45;;;17.20;99.90;;;;;;5052224;28;20048;-57
2023/06/21 01:11:31;;;;;;;9.43;2.72;;;17.20;99.90;;;;;;5054495;28;20086;-55
2023/06/21 01:14:31;;;;;;;2.78;2.03;;;17.10;99.90;;;;;;5050332;28;20048;-56
2023/06/21 01:16:57;;;;;;;3.67;2.38;;;17.10;99.90;;;;;;5045445;28;20098;-55
2023/06/21 01:19:51;;;;;;;4.90;2.50;;;17.20;99.90;;;;;;5069891;28;20036;-54
2023/06/21 01:22:21;;;;;;;4.85;2.30;;;17.20;99.90;;;;;;5063785;28;20428;-51
2023/06/21 01:25:17;;;;;;;5.35;2.83;;;17.20;99.90;;;;;;5067410;28;20071;-55
2023/06/21 01:28:02;;;;;;;4.82;2.70;;;17.20;99.90;;;;;;5036825;28;20048;-55
2023/06/21 01:30:30;;;;;;;4.90;2.90;;;17.30;99.90;;;;;;5064934;28;20057;-55
2023/06/21 01:32:57;;;;;;;9.07;3.40;;;17.20;99.90;;;;;;5050860;28;20048;-56
2023/06/21 01:35:24;;;;;;;6.43;3.17;;;17.20;99.90;;;;;;5067805;28;20098;-54
2023/06/21 01:37:51;;;;;;;8.40;6.10;;;17.30;99.90;;;;;;5032354;28;20492;-55
2023/06/21 01:40:19;;;;;;;8.63;4.53;;;17.30;99.90;;;;;;5051699;28;20048;-57
2023/06/21 01:42:46;;;;;;;8.18;4.95;;;17.30;99.90;;;;;;5085337;28;20052;-56
2023/06/21 01:45:13;;;;;;;8.52;4.63;;;17.40;99.90;;;;;;5069140;28;20048;-56
2023/06/21 01:47:40;;;;;;;9.63;5.10;;;17.30;99.90;;;;;;5068883;28;20101;-55
2023/06/21 01:50:08;;;;;;;8.82;5.63;;;17.30;99.90;;;;;;5051754;28;20384;-55
2023/06/21 01:52:35;;;;;;;7.65;4.13;;;17.30;99.90;;;;;;5052105;28;20045;-58
2023/06/21 01:55:03;;;;;;;8.10;4.90;;;17.30;99.90;;;;;;5069222;28;20040;-57
2023/06/21 01:57:30;;;;;;;9.13;4.53;;;17.30;99.90;;;;;;5068620;28;20049;-56
2023/06/21 01:59:59;;;;;;;6.22;4.10;;;17.40;99.90;;;;;;5050198;28;20497;-55
2023/06/21 02:02:25;;;;;;;8.48;4.63;;;17.40;99.90;;;;;;5072110;28;20617;-56
2023/06/21 02:04:52;;;;;;;6.05;4.28;;;17.40;99.90;;;;;;5057401;28;20555;-58
2023/06/21 02:07:19;;;;;;;10.25;5.03;;;17.50;99.90;;;;;;5056891;28;20127;-56
2023/06/21 02:09:46;;;;;;;5.18;4.38;;;17.60;99.90;;;;;;5061267;28;20514;-57
2023/06/21 02:12:13;;;;;;;6.53;3.90;;;17.60;99.90;;;;;;5032405;28;20037;-57
2023/06/21 02:14:40;;;;;;;6.95;3.70;;;17.70;99.90;;;;;;5049264;28;20083;-57
2023/06/21 02:17:06;;;;;;;6.85;3.78;;;17.70;99.90;;;;;;5066841;28;20102;-56
2023/06/21 02:19:34;;;;;;;5.47;4.03;;;17.70;99.90;;;;;;5067756;28;20049;-56
2023/06/21 02:22:02;;;;;;;7.63;4.00;;;17.70;99.90;;;;;;5067621;28;20052;-56
2023/06/21 02:24:29;;;;;;;4.32;3.58;;;17.70;99.90;;;;;;5068672;28;20052;-56
2023/06/21 02:26:56;;;;;;;11.20;3.97;;;17.80;99.90;;;;;;5067473;28;20044;-54
2023/06/21 02:29:22;;;;;;;7.55;3.92;;;17.70;99.90;;;;;;5059864;28;20045;-56
2023/06/21 02:31:49;;;;;;;5.95;4.03;;;17.70;99.90;;;;;;5068867;28;20464;-55
2023/06/21 02:34:16;;;;;;;8.25;4.15;;;17.70;99.90;;;;;;5069112;28;20109;-57
2023/06/21 02:36:47;;;;;;;7.10;4.38;;;17.80;99.90;;;;;;5068841;28;20052;-57
2023/06/21 02:39:14;;;;;;;6.53;4.05;;;17.80;99.90;;;;;;5068926;28;20040;-55
2023/06/21 02:41:41;;;;;;;9.07;4.03;;;17.70;99.90;;;;;;5068861;28;20582;-57
2023/06/21 02:44:08;;;;;;;8.55;4.70;;;17.60;99.90;;;;;;5069215;28;20036;-52
2023/06/21 02:46:34;;;;;;;5.53;4.03;;;17.50;99.90;;;;;;5069014;28;20060;-55
2023/06/21 02:49:01;;;;;;;5.68;4.68;;;17.40;99.90;;;;;;5068420;28;20041;-54
2023/06/21 02:51:28;;;;;;;5.90;4.10;;;17.30;99.90;;;;;;5068728;28;20049;-54
2023/06/21 02:53:55;;;;;;;12.25;4.68;;;17.30;99.90;;;;;;5068421;28;20114;-57
2023/06/21 02:56:21;;;;;;;9.75;4.75;;;17.30;99.90;;;;;;5048660;28;20049;-54
2023/06/21 02:58:49;;;;;;;9.50;3.80;;;17.30;99.90;;;;;;5070502;28;20093;-53
2023/06/21 03:01:16;;;;;;;7.68;4.53;;;17.30;99.90;;;;;;5068333;28;20049;-51
2023/06/21 03:03:44;;;;;;;6.10;3.83;;;17.30;99.90;;;;;;5068200;28;20056;-55
2023/06/21 03:06:11;;;;;;;6.32;4.57;;;17.20;99.90;;;;;;5068301;28;20088;-56
2023/06/21 03:08:38;;;;;;;9.40;4.53;;;17.20;99.90;;;;;;5068023;28;20462;-55
2023/06/21 03:11:08;;;;;;;7.28;4.72;;;17.20;99.90;;;;;;5050864;28;20090;-54
2023/06/21 03:13:37;;;;;;;8.77;4.90;;;17.10;99.90;;;;;;5068016;28;20044;-57
2023/06/21 03:16:04;;;;;;;7.13;4.50;;;17.10;99.90;;;;;;5068256;28;20568;-56
2023/06/21 03:18:31;;;;;;;8.30;4.93;;;17.10;99.90;;;;;;5067986;28;20048;-55
2023/06/21 03:21:01;;;;;;;5.53;5.00;;;17.00;99.90;;;;;;5068286;28;20075;-57
2023/06/21 03:23:28;;;;;;;10.23;5.43;;;17.00;99.90;;;;;;5050545;28;20059;-57
2023/06/21 03:25:54;;;;;;;9.18;5.60;;;17.00;99.90;;;;;;5068331;28;20147;-53
2023/06/21 03:28:21;;;;;;;13.18;6.13;;;17.00;99.90;;;;;;5067916;28;20072;-57
2023/06/21 03:30:48;;;;;;;8.68;5.50;;;16.90;99.90;;;;;;5068425;28;20094;-56
2023/06/21 03:33:15;;;;;;;7.60;5.65;;;17.00;99.90;;;;;;5068486;28;20083;-56
2023/06/21 03:35:42;;;;;;;9.10;6.20;;;17.00;99.90;;;;;;5067530;28;20075;-54
2023/06/21 03:38:09;;;;;;;12.93;7.05;;;17.00;99.90;;;;;;5068658;28;20067;-55
2023/06/21 03:40:36;;;;;;;11.32;6.97;;;17.00;99.90;;;;;;5067965;28;20048;-58
2023/06/21 03:43:02;;;;;;;13.52;6.80;;;17.00;99.90;;;;;;5068200;28;20049;-55
2023/06/21 03:45:29;;;;;;;8.32;7.38;;;16.90;99.90;;;;;;5067516;28;20052;-56
2023/06/21 03:47:56;;;;;;;9.57;7.47;;;16.90;99.90;;;;;;5064790;28;20048;-56
2023/06/21 03:50:23;;;;;;;9.50;7.40;;;16.90;99.90;;;;;;5067430;28;20044;-55
2023/06/21 03:52:50;;;;;;;9.68;6.43;;;17.00;99.90;;;;;;5067849;28;20053;-58
2023/06/21 03:55:18;;;;;;;12.05;7.57;;;17.00;99.90;;;;;;5064106;28;20048;-58
2023/06/21 03:57:45;;;;;;;7.85;7.05;;;16.90;99.90;;;;;;5067611;28;20101;-57
2023/06/21 04:00:13;;;;;;;10.82;7.05;;;16.90;99.90;;;;;;5067300;28;20041;-56
2023/06/21 04:02:40;;;;;;;11.02;7.07;;;16.80;99.90;;;;;;5049981;28;20051;-58
2023/06/21 04:05:09;;;;;;;9.98;7.50;;;16.80;99.90;;;;;;5059427;28;20120;-52
2023/06/21 04:07:37;;;;;;;9.27;6.30;;;16.80;99.90;;;;;;5058157;28;20045;-54
2023/06/21 04:10:05;;;;;;;9.88;7.43;;;16.90;99.90;;;;;;5067058;28;20055;-57
2023/06/21 04:12:31;;;;;;;9.57;6.85;;;16.80;99.90;;;;;;5067701;28;20052;-58
2023/06/21 04:15:01;;;;;;;11.68;8.07;;;16.80;99.90;;;;;;5067146;28;20055;-55
2023/06/21 04:17:28;;;;;;;11.93;7.47;;;16.80;99.90;;;;;;5067432;28;20442;-56
2023/06/21 04:19:55;;;;;;;8.15;7.35;;;16.80;99.90;;;;;;5067212;28;20079;-56
2023/06/21 04:22:24;;;;;;;10.38;7.95;;;16.80;99.90;;;;;;5066387;28;20072;-52
2023/06/21 04:24:51;;;;;;;11.38;7.63;;;16.80;99.90;;;;;;5066975;28;20442;-56
2023/06/21 04:27:18;;;;;;;8.73;7.22;;;16.80;99.90;;;;;;5066796;28;20415;-55
2023/06/21 04:29:48;;;;;;;10.35;7.25;;;16.80;99.90;;;;;;5068147;28;20106;-55
2023/06/21 04:32:14;;;;;;;9.68;7.35;;;16.80;99.90;;;;;;5070748;28;20059;-55
2023/06/21 04:34:47;;;;;;;17.50;8.75;;;16.80;99.90;;;;;;5071012;28;20510;-58
2023/06/21 04:37:14;;;;;;;12.07;7.47;;;16.80;99.90;;;;;;5070789;28;20102;-56
2023/06/21 04:39:41;;;;;;;10.38;6.78;;;16.80;99.90;;;;;;5070814;28;20542;-57
2023/06/21 04:42:08;;;;;;;11.18;7.25;;;16.80;99.90;;;;;;5052833;28;20071;-53
2023/06/21 04:44:35;;;;;;;10.40;7.20;;;16.90;99.90;;;;;;5070488;28;20051;-55
2023/06/21 04:47:02;;;;;;;15.40;7.97;;;16.90;99.90;;;;;;5066457;28;20045;-57
2023/06/21 04:49:29;;;;;;;10.85;6.75;;;16.90;99.90;;;;;;5071078;28;20048;-57
2023/06/21 04:51:57;;;;;;;13.73;7.68;;;17.00;99.90;;;;;;5070248;28;20135;-57
2023/06/21 04:54:25;;;;;;;9.82;7.25;;;17.00;99.90;;;;;;5067112;28;20496;-57
2023/06/21 04:56:52;;;;;;;12.63;8.18;;;17.00;99.90;;;;;;5069096;28;20526;-56
2023/06/21 04:59:19;;;;;;;11.63;7.15;;;17.00;99.90;;;;;;5069737;28;20674;-55
2023/06/21 05:01:46;;;;;;;12.15;7.85;;;17.00;99.90;;;;;;5069373;28;20098;-57
2023/06/21 05:04:13;;;;;;;12.93;7.65;;;17.00;99.90;;;;;;5069735;28;20040;-55
2023/06/21 05:06:41;;;;;;;9.25;7.22;;;17.00;99.90;;;;;;5066216;28;20045;-58
2023/06/21 05:09:11;;;;;;;9.98;7.60;;;17.10;99.90;;;;;;5068662;28;20040;-55
2023/06/21 05:11:38;;;;;;;11.15;7.22;;;17.10;99.90;;;;;;5069359;28;20076;-54
2023/06/21 05:14:05;;;;;;;13.10;7.57;;;17.00;99.90;;;;;;5069505;28;20114;-52
2023/06/21 05:16:32;;;;;;;8.13;6.45;;;17.10;99.90;;;;;;5070066;28;20044;-53
2023/06/21 05:18:59;;;;;;;10.93;6.53;;;17.10;99.90;;;;;;5070006;28;20102;-52
2023/06/21 05:21:26;;;;;;;7.18;5.45;;;17.10;99.90;;;;;;5070160;28;20486;-54
2023/06/21 05:23:52;;;;;;;8.07;5.85;;;17.10;99.90;;;;;;5069851;28;20068;-56
2023/06/21 05:26:19;;;;;;;7.03;5.32;;;17.20;99.90;;;;;;5069944;28;20135;-56
2023/06/21 05:28:47;;;;;;;8.25;5.40;;;17.20;99.90;;;;;;5069997;28;20757;-54
2023/06/21 05:31:14;;;;;;;8.30;6.15;;;17.20;99.90;;;;;;5070114;28;20055;-60
2023/06/21 05:33:41;;;;;;;8.85;6.20;;;17.30;99.90;;;;;;5069654;28;20045;-56
2023/06/21 05:36:09;;;;;;;10.98;6.95;;;17.30;99.90;;;;;;5069844;28;20525;-55
2023/06/21 05:38:35;;;;;;;11.68;7.40;;;17.30;99.90;;;;;;5069709;28;20040;-51
2023/06/21 05:41:02;;;;;;;9.25;7.30;;;17.40;99.90;;;;;;5069633;28;20518;-54
2023/06/21 05:43:29;;;;;;;8.63;6.57;;;17.30;99.90;;;;;;5069795;28;20048;-56
2023/06/21 05:45:56;;;;;;;13.27;7.30;;;17.40;99.90;;;;;;5069617;28;20487;-57
2023/06/21 05:48:23;;;;;;;13.57;6.97;;;17.40;99.90;;;;;;5067543;28;20052;-55
2023/06/21 05:50:50;;;;;;;11.63;7.40;;;17.50;99.90;;;;;;5084601;28;20049;-56
2023/06/21 05:53:16;;;;;;;13.98;7.60;;;17.60;99.90;;;;;;5051116;28;20113;-61
2023/06/21 05:55:46;;;;;;;14.25;8.07;;;17.60;99.90;;;;;;5068778;28;20048;-54
2023/06/21 05:58:13;;;;;;;19.00;7.38;;;17.70;99.90;;;;;;5068913;28;20094;-57
2023/06/21 06:00:39;;;;;;;11.85;6.60;;;17.70;99.90;;;;;;5068490;28;20349;-55
2023/06/21 06:03:08;;;;;;;11.07;7.05;;;17.70;99.90;;;;;;5066321;28;20675;-58
2023/06/21 06:05:35;;;;;;;9.00;6.35;;;17.90;99.90;;;;;;5068138;28;20114;-56
2023/06/21 06:08:02;;;;;;;10.32;5.78;;;17.80;99.90;;;;;;5068682;28;20071;-55
2023/06/21 06:10:29;;;;;;;8.30;5.82;;;17.80;99.90;;;;;;5068611;28;20056;-54
2023/06/21 06:12:57;;;;;;;7.93;4.53;;;17.90;99.90;;;;;;5068819;28;20124;-55
2023/06/21 06:15:23;;;;;;;8.70;4.50;;;17.90;99.90;;;;;;5063475;28;20052;-53
2023/06/21 06:17:50;;;;;;;4.93;4.07;;;18.00;99.90;;;;;;5078317;28;20063;-57
2023/06/21 06:20:17;;;;;;;9.00;4.85;;;18.00;99.90;;;;;;5068314;28;20468;-56
2023/06/21 06:22:45;;;;;;;6.43;4.63;;;18.10;99.90;;;;;;5068449;28;20064;-54
2023/06/21 06:25:12;;;;;;;6.45;4.22;;;18.20;99.90;;;;;;5068051;28;20071;-57
2023/06/21 06:27:38;;;;;;;7.55;5.47;;;18.20;99.90;;;;;;5068624;28;20106;-56
2023/06/21 06:30:06;;;;;;;14.88;5.40;;;18.20;99.90;;;;;;5050016;28;20116;-56
2023/06/21 06:32:33;;;;;;;8.30;5.40;;;18.30;99.90;;;;;;5050836;28;20518;-57
2023/06/21 06:35:00;;;;;;;5.47;4.60;;;18.40;99.90;;;;;;5067796;28;20041;-59
2023/06/21 06:37:27;;;;;;;8.73;4.43;;;18.50;99.90;;;;;;5060429;28;20044;-54
2023/06/21 06:39:58;;;;;;;6.13;4.85;;;18.50;99.90;;;;;;5067775;28;20055;-58
2023/06/21 06:42:25;;;;;;;10.65;5.13;;;18.60;99.90;;;;;;5067811;28;20051;-58
2023/06/21 06:44:53;;;;;;;8.77;5.55;;;18.60;99.90;;;;;;5067730;28;20052;-56
2023/06/21 06:47:20;;;;;;;7.68;4.28;;;18.70;99.90;;;;;;5066761;28;20067;-55
2023/06/21 06:49:47;;;;;;;8.23;3.88;;;18.80;99.90;;;;;;5067534;28;20044;-57
2023/06/21 06:52:13;;;;;;;6.53;4.20;;;18.80;99.90;;;;;;5067359;28;20055;-58
2023/06/21 06:54:40;;;;;;;6.25;3.85;;;18.90;99.90;;;;;;5067626;28;20055;-57
2023/06/21 06:57:07;;;;;;;6.38;3.90;;;18.90;99.90;;;;;;5067550;28;20053;-56
2023/06/21 06:59:48;;;;;;;5.47;3.40;;;18.90;99.90;;;;;;5051576;28;20044;-56
2023/06/21 07:02:15;;;;;;;5.28;3.17;;;19.00;99.90;;;;;;5049371;28;20059;-57
2023/06/21 07:04:42;;;;;;;6.00;3.00;;;19.00;99.90;;;;;;5049596;28;20618;-57
2023/06/21 07:07:09;;;;;;;5.18;3.00;;;19.10;99.90;;;;;;5067177;28;20066;-56
2023/06/21 07:09:37;;;;;;;6.15;3.33;;;19.10;99.90;;;;;;5066887;28;20487;-55
2023/06/21 07:12:05;;;;;;;4.32;2.92;;;19.10;99.90;;;;;;5066437;28;20128;-58
2023/06/21 07:14:32;;;;;;;6.53;3.60;;;19.10;99.90;;;;;;5067223;28;20040;-56
2023/06/21 07:16:59;;;;;;;5.97;3.33;;;19.20;99.90;;;;;;5066046;28;20041;-58
2023/06/21 07:19:25;;;;;;;4.05;3.50;;;19.20;99.90;;;;;;5067612;28;20410;-57
2023/06/21 07:21:52;;;;;;;4.38;2.33;;;19.30;99.90;;;;;;5066853;28;20419;-57
2023/06/21 07:24:19;;;;;;;3.13;2.28;;;19.30;99.90;;;;;;5067475;28;20044;-57
2023/06/21 07:26:46;;;;;;;6.38;2.30;;;19.40;99.90;;;;;;5066234;28;20631;-69
2023/06/21 07:29:13;;;;;;;6.75;2.88;;;19.40;99.90;;;;;;5066530;28;20131;-59
2023/06/21 07:31:40;;;;;;;3.65;1.92;;;19.40;99.90;;;;;;5066746;28;20051;-61
2023/06/21 07:34:07;;;;;;;4.30;2.30;;;19.50;99.90;;;;;;5067447;28;20040;-60
2023/06/21 07:36:36;;;;;;;5.50;2.55;;;19.50;99.90;;;;;;5066833;28;20119;-60
2023/06/21 07:39:07;;;;;;;4.25;2.53;;;19.60;99.90;;;;;;5067098;28;20041;-63
2023/06/21 07:41:34;;;;;;;5.05;2.78;;;19.50;99.90;;;;;;5066756;28;20051;-61
2023/06/21 07:44:01;;;;;;;7.43;2.72;;;19.60;99.90;;;;;;5066533;28;20056;-60
2023/06/21 07:46:28;;;;;;;5.55;2.53;;;19.70;99.90;;;;;;5066973;28;20048;-58
2023/06/21 07:48:55;;;;;;;5.03;2.92;;;19.70;99.90;;;;;;5066801;28;20044;-59
2023/06/21 07:51:22;;;;;;;8.70;2.28;;;19.80;99.90;;;;;;5067005;28;20615;-59
2023/06/21 07:53:48;;;;;;;4.97;2.35;;;20.00;99.90;;;;;;5066892;28;20044;-60
2023/06/21 07:56:16;;;;;;;3.80;1.85;;;20.00;99.90;;;;;;5066787;28;20044;-59
2023/06/21 07:58:43;;;;;;;5.78;2.17;;;20.10;99.90;;;;;;5064812;28;20060;-58
2023/06/21 08:01:12;;;;;;;3.63;2.20;;;20.20;99.90;;;;;;5067038;28;20131;-58
2023/06/21 08:03:39;;;;;;;3.70;2.38;;;20.20;99.90;;;;;;5067150;28;20749;-59
2023/06/21 08:06:06;;;;;;;2.67;1.65;;;20.30;99.90;;;;;;5069560;28;20470;-59
2023/06/21 08:08:33;;;;;;;3.67;1.90;;;20.40;99.90;;;;;;5069296;28;20060;-59
2023/06/21 08:11:00;;;;;;;2.88;1.50;;;20.40;99.90;;;;;;5070950;28;20045;-59
2023/06/21 08:13:27;;;;;;;1.98;1.40;;;20.50;99.90;;;;;;5085988;28;20051;-60
2023/06/21 08:15:54;;;;;;;2.42;1.33;;;20.50;99.90;;;;;;5069480;28;20048;-60
2023/06/21 08:18:20;;;;;;;2.17;1.58;;;20.50;99.90;;;;;;5070079;28;20044;-60
2023/06/21 08:20:47;;;;;;;3.22;1.60;;;20.50;99.90;;;;;;5070280;28;20047;-60
2023/06/21 08:23:14;;;;;;;4.78;1.75;;;20.60;99.90;;;;;;5069720;28;20057;-62
2023/06/21 08:25:41;;;;;;;7.30;1.90;;;20.70;99.90;;;;;;5071065;28;20408;-61
2023/06/21 08:28:08;;;;;;;2.80;1.40;;;20.80;99.90;;;;;;5070650;28;20048;-69
2023/06/21 08:30:35;;;;;;;8.75;1.92;;;21.00;99.90;;;;;;5070304;28;20072;-59
2023/06/21 08:33:02;;;;;;;12.15;2.20;;;21.00;99.90;;;;;;5070757;28;20063;-59
2023/06/21 08:35:30;;;;;;;14.73;2.75;;;21.10;99.90;;;;;;5070463;28;20052;-60
2023/06/21 08:37:58;;;;;;;49.50;6.13;;;21.30;99.90;;;;;;5070588;28;20299;-60
2023/06/21 08:40:37;;;;;;;4.78;1.45;;;21.40;99.90;;;;;;5070454;28;20475;-60
2023/06/21 08:43:04;;;;;;;13.80;2.38;;;21.50;99.90;;;;;;5070567;28;20045;-60
2023/06/21 08:45:31;;;;;;;3.50;1.50;;;21.60;99.90;;;;;;5052429;28;20049;-60
2023/06/21 08:48:01;;;;;;;2.45;1.30;;;21.60;99.90;;;;;;5070083;28;20049;-61
2023/06/21 08:50:28;;;;;;;4.25;1.70;;;21.50;99.90;;;;;;5069073;28;20041;-61
2023/06/21 08:52:56;;;;;;;2.10;1.50;;;21.50;99.90;;;;;;5070434;28;20106;-62
2023/06/21 08:55:23;;;;;;;3.95;1.88;;;21.50;99.90;;;;;;5052322;28;20250;-62
2023/06/21 08:57:55;;;;;;;2.30;1.30;;;21.50;99.90;;;;;;5036518;28;20049;-61
2023/06/21 09:00:26;;;;;;;5.47;2.78;;;21.60;99.90;;;;;;5069612;28;20487;-62
2023/06/21 09:02:56;;;;;;;4.43;1.55;;;21.80;99.90;;;;;;5036846;28;20055;-62
2023/06/21 09:05:32;;;;;;;3.78;2.13;;;21.90;99.90;;;;;;5051975;28;20067;-63
2023/06/21 09:07:59;;;;;;;2.97;1.38;;;22.10;99.90;;;;;;5052661;28;20261;-62
2023/06/21 09:10:30;;;;;;;2.40;1.50;;;22.10;99.90;;;;;;5020477;28;20048;-61
2023/06/21 09:12:57;;;;;;;9.65;2.00;;;21.90;99.90;;;;;;5070462;28;20063;-63
2023/06/21 09:15:24;;;;;;;4.07;1.60;;;22.00;99.90;;;;;;5069475;28;20480;-61
2023/06/21 09:17:53;;;;;;;3.72;1.80;;;21.90;99.90;;;;;;5070343;28;20080;-62
2023/06/21 09:20:20;;;;;;;3.50;1.55;;;21.90;99.90;;;;;;5051839;28;20048;-58
2023/06/21 09:22:47;;;;;;;4.57;2.13;;;21.90;99.90;;;;;;5035828;28;20060;-63
2023/06/21 09:25:13;;;;;;;3.35;1.50;;;21.90;99.90;;;;;;5069598;28;20047;-62
2023/06/21 09:27:41;;;;;;;7.93;2.65;;;22.00;99.90;;;;;;5066322;28;20079;-62
2023/06/21 09:30:08;;;;;;;5.38;2.15;;;22.10;99.90;;;;;;5069087;28;20043;-63
2023/06/21 09:32:56;;;;;;;4.50;1.77;;;22.10;99.90;;;;;;5037766;28;20056;-62
2023/06/21 09:35:23;;;;;;;4.90;1.50;;;22.20;99.90;;;;;;5074787;28;20040;-63
2023/06/21 09:37:50;;;;;;;25.40;3.25;;;22.20;99.90;;;;;;5069124;28;20044;-63
2023/06/21 09:40:17;;;;;;;5.25;2.25;;;22.30;99.90;;;;;;5068023;28;20514;-63
2023/06/21 09:42:44;;;;;;;12.98;3.42;;;22.60;99.90;;;;;;5069463;28;20053;-62
2023/06/21 09:45:12;;;;;;;3.90;2.00;;;22.60;99.90;;;;;;5069246;28;20041;-62
2023/06/21 09:47:40;;;;;;;2.33;1.45;;;22.70;99.90;;;;;;5069593;28;20056;-62
2023/06/21 09:50:10;;;;;;;3.08;1.52;;;22.70;99.90;;;;;;5069058;28;20040;-62
2023/06/21 09:52:43;;;;;;;4.25;1.40;;;22.60;99.90;;;;;;5063874;28;20052;-62
2023/06/21 09:55:16;;;;;;;1.92;1.45;;;22.70;99.90;;;;;;5033166;28;20040;-61
2023/06/21 09:57:43;;;;;;;3.60;2.13;;;23.00;99.90;;;;;;5069215;28;20056;-61
2023/06/21 10:00:13;;;;;;;3.53;1.80;;;22.90;99.90;;;;;;5051967;28;20048;-62
2023/06/21 10:02:40;;;;;;;3.03;1.45;;;22.80;99.90;;;;;;5069156;28;20060;-61
2023/06/21 10:05:18;;;;;;;3.33;2.35;;;22.70;99.90;;;;;;5069251;28;20102;-62
2023/06/21 10:07:46;;;;;;;4.72;2.53;;;22.50;99.90;;;;;;5065583;28;20123;-61
2023/06/21 10:10:13;;;;;;;5.47;2.20;;;22.50;99.90;;;;;;5069200;28;20127;-63
2023/06/21 10:12:51;;;;;;;11.38;2.75;;;22.60;99.90;;;;;;5066513;28;20055;-63
2023/06/21 10:15:21;;;;;;;3.08;2.25;;;22.90;99.90;;;;;;5068351;28;20040;-63
2023/06/21 10:17:48;;;;;;;5.28;2.22;;;23.00;99.90;;;;;;5068662;28;20045;-63
2023/06/21 10:20:30;;;;;;;3.85;2.67;;;23.00;99.90;;;;;;5068934;28;20123;-60
2023/06/21 10:22:57;;;;;;;4.85;2.35;;;22.80;99.90;;;;;;5050809;28;20053;-63
2023/06/21 10:25:24;;;;;;;7.10;2.70;;;22.90;99.90;;;;;;5051298;28;20223;-63
2023/06/21 10:27:51;;;;;;;4.28;2.30;;;23.20;99.90;;;;;;5031117;28;20763;-63
2023/06/21 10:30:19;;;;;;;7.05;2.53;;;23.30;99.90;;;;;;5031010;28;20041;-62
2023/06/21 10:32:47;;;;;;;3.42;2.58;;;23.30;99.90;;;;;;5050961;28;20131;-63
2023/06/21 10:35:16;;;;;;;4.90;2.97;;;23.60;99.90;;;;;;5051067;28;20036;-63
2023/06/21 10:37:48;;;;;;;4.30;2.67;;;23.80;99.90;;;;;;5050548;28;20052;-62
2023/06/21 10:40:16;;;;;;;3.80;2.50;;;24.00;99.90;;;;;;5069007;28;20040;-63
2023/06/21 10:42:43;;;;;;;3.83;2.47;;;24.00;99.90;;;;;;5068724;28;20051;-63
2023/06/21 10:45:10;;;;;;;3.53;2.20;;;24.00;99.90;;;;;;5070621;28;20048;-63
2023/06/21 10:47:37;;;;;;;5.00;3.63;;;24.00;99.90;;;;;;5070414;28;20048;-63
2023/06/21 10:50:06;;;;;;;3.58;2.65;;;24.10;99.90;;;;;;5070044;28;20045;-62
2023/06/21 10:52:33;;;;;;;2.83;2.30;;;23.90;99.90;;;;;;5067858;28;20048;-63
2023/06/21 10:55:01;;;;;;;4.63;2.83;;;23.70;99.90;;;;;;5068253;28;20060;-63
2023/06/21 10:57:29;;;;;;;9.75;2.80;;;23.50;99.90;;;;;;5067945;28;20055;-61
2023/06/21 10:59:56;;;;;;;6.25;2.72;;;23.40;99.90;;;;;;5067951;28;20055;-62
2023/06/21 11:02:23;;;;;;;3.45;2.35;;;23.40;99.90;;;;;;5064777;28;20101;-62
2023/06/21 11:05:15;;;;;;;6.72;2.55;;;23.40;99.90;;;;;;5033723;28;20051;-61
2023/06/21 11:08:01;;;;;;;7.00;2.65;;;23.30;99.90;;;;;;5067380;28;20041;-63
2023/06/21 11:10:49;;;;;;;5.00;2.20;;;23.40;99.90;;;;;;5067706;28;20098;-62
2023/06/21 11:13:17;;;;;;;10.63;2.40;;;23.50;99.90;;;;;;5056565;28;20044;-62
2023/06/21 11:15:48;;;;;;;5.10;2.38;;;23.60;99.90;;;;;;5067640;28;20036;-63
2023/06/21 11:18:19;;;;;;;3.63;2.05;;;23.60;99.90;;;;;;5067819;28;20110;-62
2023/06/21 11:20:49;;;;;;;4.28;2.30;;;23.60;99.90;;;;;;5065739;28;20047;-62
2023/06/21 11:23:22;;;;;;;4.45;2.67;;;23.60;99.90;;;;;;5049215;28;21398;-62
2023/06/21 11:25:53;;;;;;;14.20;2.63;;;23.70;99.90;;;;;;5068077;28;20036;-62
2023/06/21 11:28:19;;;;;;;3.28;2.20;;;23.90;99.90;;;;;;5051651;28;20049;-62
2023/06/21 11:30:59;;;;;;;4.03;2.63;;;24.00;99.90;;;;;;5068401;28;20054;-62
2023/06/21 11:33:30;;;;;;;17.88;2.28;;;24.20;99.90;;;;;;5070039;28;20044;-63
2023/06/21 11:36:03;;;;;;;3.92;1.80;;;24.30;99.90;;;;;;5069322;28;20514;-62
2023/06/21 11:38:30;;;;;;;6.50;2.22;;;24.30;99.90;;;;;;5051748;28;20224;-62
2023/06/21 11:40:58;;;;;;;4.47;2.20;;;24.30;99.90;;;;;;5055244;28;20040;-62
2023/06/21 11:43:25;;;;;;;3.42;2.13;;;24.30;99.90;;;;;;5054690;28;20058;-62
2023/06/21 11:46:00;;;;;;;5.32;1.95;;;24.20;99.90;;;;;;5054342;28;20063;-62
2023/06/21 11:48:27;;;;;;;3.72;2.03;;;24.10;99.90;;;;;;5055080;28;20044;-62
2023/06/21 11:50:56;;;;;;;6.00;2.28;;;24.10;99.90;;;;;;5071623;28;20044;-62
2023/06/21 11:53:28;;;;;;;4.03;2.25;;;24.00;99.90;;;;;;5071524;28;20533;-61
2023/06/21 11:56:00;;;;;;;5.50;1.90;;;24.00;99.90;;;;;;5071015;28;20068;-61
2023/06/21 11:58:27;;;;;;;3.45;2.20;;;24.00;99.90;;;;;;5071531;28;20484;-62
2023/06/21 12:00:55;;;;;;;3.70;1.90;;;23.80;99.90;;;;;;5070850;28;20041;-61
2023/06/21 12:03:25;;;;;;;10.07;2.65;;;23.70;99.90;;;;;;5053854;28;20503;-61
2023/06/21 12:05:57;;;;;;;4.43;2.53;;;23.70;99.90;;;;;;5070827;28;20098;-61
2023/06/21 12:08:28;;;;;;;3.95;2.22;;;23.60;99.90;;;;;;5071128;28;20080;-62
2023/06/21 12:11:02;;;;;;;8.15;2.70;;;23.50;99.90;;;;;;5072137;28;20113;-61
2023/06/21 12:13:30;;;;;;;4.82;2.03;;;23.50;99.90;;;;;;5072891;28;20060;-62
2023/06/21 12:15:58;;;;;;;8.32;2.45;;;23.60;99.90;;;;;;5069468;28;20040;-61
2023/06/21 12:18:27;;;;;;;7.53;2.72;;;23.60;99.90;;;;;;5069728;28;20048;-64
2023/06/21 12:20:54;;;;;;;18.08;2.30;;;23.60;99.90;;;;;;5071811;28;20098;-62
2023/06/21 12:23:22;;;;;;;3.58;1.60;;;23.70;99.90;;;;;;5072021;28;20569;-61
2023/06/21 12:25:50;;;;;;;3.17;1.90;;;23.70;99.90;;;;;;5070233;28;20109;-62
2023/06/21 12:28:21;;;;;;;7.72;2.35;;;23.90;99.90;;;;;;5071343;28;20060;-62
2023/06/21 12:30:59;;;;;;;4.95;2.30;;;24.20;99.90;;;;;;5070727;28;20047;-62
2023/06/21 12:33:26;;;;;;;6.72;2.35;;;24.40;99.90;;;;;;5070919;28;20135;-62
2023/06/21 12:36:25;;;;;;;5.38;2.30;;;24.60;99.90;;;;;;5070966;28;20049;-62
2023/06/21 12:39:00;;;;;;;4.07;1.88;;;24.70;99.90;;;;;;5058087;28;20044;-62
2023/06/21 12:41:28;;;;;;;5.93;2.53;;;24.80;99.90;;;;;;5070740;28;20041;-62
2023/06/21 12:43:59;;;;;;;8.32;2.28;;;25.00;99.90;;;;;;5051451;28;20055;-62
2023/06/21 12:46:26;;;;;;;3.30;2.08;;;25.00;99.90;;;;;;5070820;28;20047;-62
2023/06/21 12:48:54;;;;;;;6.75;2.28;;;25.00;99.90;;;;;;5052640;28;20499;-62
2023/06/21 12:51:29;;;;;;;3.83;1.83;;;25.20;99.90;;;;;;5050557;28;20102;-62
2023/06/21 12:53:58;;;;;;;2.67;1.52;;;25.20;99.80;;;;;;5071470;28;20127;-62